ADDS METAR Data INFO
IDs: Format: Raw Decoded Include TAF

Data at: 0752 UTC 17 Oct 2017

KTPA 170653Z 04005KT 10SM FEW025 BKN043 26/23 A2998 RMK AO2 LTG DSNT W SLP152 FRQ LTGIC DSNT W CB DSNT W T02610228 $
KTPA 170553Z 01005KT 10SM FEW025 SCT040 BKN180 26/22 A2998 RMK AO2 LTG DSNT W AND NW SLP152 FRQ LTGIC DSNT NW CB DSNT NW T02610222 10278 20256 55005 $
KTPA 170453Z 08003KT 10SM FEW025 SCT050 BKN065 27/22 A2998 RMK AO2 LTG DSNT NW SLP151 OCNL LTGIC DSNT NW CB DSNT NW T02670222 403220239 $
KTPA 170353Z 03006KT 10SM FEW026 FEW085 SCT250 27/22 A2999 RMK AO2 SLP155 T02670222 $
KTPA 170253Z 03005KT 10SM FEW055 SCT220 27/24 A3000 RMK AO2 SLP157 T02670239 51019 $
KTPA 170153Z 01006KT 10SM SCT055 BKN250 27/24 A2999 RMK AO2 SLP153 T02720239 $
KTPA 170053Z 34007KT 10SM FEW036 FEW200 27/23 A2997 RMK AO2 SLP146 T02720228 $
KTPA 162353Z 34008KT 10SM FEW050 SCT140 SCT250 28/22 A2994 RMK AO2 SLP139 60000 T02780217 10322 20278 53014 $
KTPA 162306Z 35005KT 10SM SCT055TCU BKN075 BKN250 28/22 A2992 RMK AO2 CB DSNT SE TCU NE-SE SHRA DSNT SE T02830217 $
KTPA 162253Z 33007KT 10SM VCTS SCT055TCU SCT080 BKN250 28/22 A2992 RMK AO2 RAB30E41 SLP130 CB DSNT SE TCU NE-S SHRA DSNT SE P0000 T02830222 $
KTPA 162249Z 33006KT 10SM VCTS SCT055TCU SCT080 BKN250 28/22 A2992 RMK AO2 RAB30E41 TCU NE-SE P0000 $
KTPA 162153Z 30007KT 10SM SCT047 SCT140 BKN250 32/22 A2990 RMK AO2 SLP124 T03170222 $
KTPA 162053Z 26008KT 10SM SCT047 SCT110 BKN250 31/22 A2991 RMK AO2 SLP127 T03110222 56022 $
KTPA 161953Z 24007KT 10SM SCT040 BKN250 32/22 A2992 RMK AO2 SLP131 T03170222 $
KTPA 161853Z 24006KT 10SM SCT040 BKN250 31/22 A2994 RMK AO2 SLP138 CU BLDG ALQDS T03110222 $
KTPA 161753Z 24007KT 10SM SCT040 BKN250 31/23 A2997 RMK AO2 SLP149 T03060233 10306 20244 58018 $
KTPA 161653Z 26003KT 10SM SCT030 SCT250 31/23 A3000 RMK AO2 SLP158 T03060233 $
KTPA 161553Z 24004KT 10SM FEW024 SCT250 29/24 A3002 RMK AO2 SLP163 T02890239 $
KTPA 161453Z VRB03KT 10SM SCT020 SCT200 29/24 A3002 RMK AO2 SLP166 T02890239 50004 $
KTPA 161353Z 07004KT 10SM FEW011 27/24 A3003 RMK AO2 SLP169 T02670239 $
KTPA 161253Z VRB03KT 10SM FEW010 26/23 A3003 RMK AO2 SLP167 T02560233 $
KTPA 161153Z 03003KT 10SM FEW012 24/23 A3001 RMK AO2 SLP162 70051 T02440228 10256 20239 53014 $
KTPA 161053Z 04003KT 10SM FEW012 FEW190 24/23 A2999 RMK AO2 SLP156 T02440228 $
KTPA 160953Z 07003KT 10SM FEW020 FEW190 24/23 A2998 RMK AO2 SLP151 T02440228 $
KTPA 160853Z 02003KT 10SM FEW140 24/23 A2997 RMK AO2 SLP149 T02440228 56008 $
KTPA 160753Z 00000KT 10SM FEW140 25/23 A2997 RMK AO2 SLP149 T02500228 $
KTPA 160653Z 00000KT 10SM CLR 25/23 A2999 RMK AO2 SLP153 T02500228 $
KTPA 160553Z 05003KT 10SM CLR 26/23 A3000 RMK AO2 SLP157 T02560233 10267 20256 56015 $
KTPA 160453Z 00000KT 10SM FEW150 26/23 A3000 RMK AO2 SLP159 T02610233 403280233 $
KTPA 160353Z 00000KT 10SM FEW050 FEW190 26/24 A3003 RMK AO2 SLP167 T02610239 $
KTPA 160253Z 03003KT 10SM FEW034 SCT250 26/24 A3004 RMK AO2 SLP172 T02610239 53013 $
KTPA 160153Z 00000KT 10SM FEW020 FEW040 BKN180 26/23 A3003 RMK AO2 SLP169 T02560233 $
KTPA 160053Z 00000KT 10SM FEW020 FEW042 SCT250 26/23 A3001 RMK AO2 SLP162 T02610233 $
KTPA 152353Z 00000KT 10SM FEW020 SCT080 BKN110 BKN250 26/23 A3000 RMK AO2 TSE2254 SLP159 60051 T02610233 10328 20250 53003 $
KTPA 152258Z 29005KT 10SM SCT030CB SCT055 BKN110 BKN200 26/23 A2999 RMK AO2 LTG DSNT SE AND S TSE54 CB SW-N MOV SW TCU SE T02560228 $
KTPA 152253Z 28006KT 10SM TS SCT025 BKN041 OVC100 26/23 A2999 RMK AO2 LTG DSNT SE-SW RAE17 SLP156 P0001 T02560228 $
KTPA 152153Z 07008KT 7SM -TSRA FEW015 BKN030CB BKN060 OVC130 27/24 A3000 RMK AO2 LTG DSNT NE-S RAB2055E46B52 TSE15B23E43B50 SLP157 OCNL LTGICCG E TS N-E MOV S CB DSNT S TCU ALQDS P0050 T02720239 $
KTPA 152149Z 07005KT 7SM FEW015 BKN030CB BKN060 OVC130 29/25 A3000 RMK AO2 LTG DSNT SE AND S RAB2055E46 TSE15B23E43 CB N-E MOV S CB DSNT S TCU ALQDS P0050 $
KTPA 152137Z 29006G16KT 7SM -TSRA FEW015 BKN030CB BKN060 OVC130 27/24 A2997 RMK AO2 LTG DSNT NE-S RAB2055 TSE15B23 CB N-E MOV S CB DSNT S TCU ALQDS P0050 T02720239 $
KTPA 152125Z 24010KT 2SM R01L/5000VP6000FT TSRA BKN030CB BKN050 BKN070 26/22 A2998 RMK AO2 LTG DSNT NE AND SE RAB2055 TSE15B23 CB NE S-W MOV SW TCU ALQDS P0048 T02560222 $
KTPA 152121Z COR 25011KT 2SM R01L/4000VP6000FT VCTS RA BKN030CB BKN050 BKN070 26/23 A2997 RMK AO2 LTG DSNT SE RAB2055 TSE15 CB NE AND S-W MOV SW TCU ALQDS P0044 T02610233 $
KTPA 152100Z COR VRB04G17KT 1 3/4SM R01L/2200VP6000FT -RA SCT030TCU BKN050 OVC075 28/24 A2999 RMK AO2 TWR VIS 2 LTG DSNT E RAB2055 TCU ALQDS P0004 T02830239 $
KTPA 152053Z COR 35010KT 290V030 5SM -RA FEW030TCU BKN050 OVC075 31/23 A2998 RMK AO2 SLP153 TCU ALQDS T03060233 55018 $
KTPA 151953Z 26008KT 10SM SCT050TCU 31/22 A2998 RMK AO2 SLP152 TCU NE T03060222 $